Time;durP1;ratioP1;P1;durP2;ratioP2;P2;SDS_P1;SDS_P2;PMS_P1;PMS_P2;Temp;Humidity;BMP_temperature;BMP_pressure;BME280_temperature;BME280_humidity;BME280_pressure;Samples;Min_cycle;Max_cycle;Signal;HPM_P1;HPM_P2
2022/01/27 00:01:15;;;;;;;37.00;20.53;;;;;;;;;;4952476;29;20213;-77
2022/01/27 00:04:01;;;;;;;42.10;23.27;;;;;;;;;;4937571;29;20201;-77
2022/01/27 00:06:30;;;;;;;41.13;23.57;;;;;;;;;;4938109;29;20645;-77
2022/01/27 00:09:05;;;;;;;39.40;22.10;;;;;;;;;;4950533;28;20245;-78
2022/01/27 00:11:31;;;;;;;41.30;23.47;;;;;;;;;;4949902;28;20188;-77
2022/01/27 00:14:00;;;;;;;39.60;21.77;;;;;;;;;;4936964;29;20626;-77
2022/01/27 00:16:34;;;;;;;38.97;22.03;;;;;;;;;;4948019;28;20216;-77
2022/01/27 00:19:02;;;;;;;42.43;23.73;;;;;;;;;;4951648;28;20181;-77
2022/01/27 00:21:30;;;;;;;43.50;23.67;;;;;;;;;;4943714;29;20190;-79
2022/01/27 00:23:56;;;;;;;40.77;24.00;;;;;;;;;;4948296;28;20198;-75
2022/01/27 00:26:22;;;;;;;41.40;23.20;;;;;;;;;;4951246;28;20174;-76
2022/01/27 00:28:49;;;;;;;41.00;23.30;;;;;;;;;;4946516;28;20283;-78
2022/01/27 00:31:16;;;;;;;40.80;23.40;;;;;;;;;;4961672;28;20185;-78
2022/01/27 00:33:43;;;;;;;39.53;23.43;;;;;;;;;;4934123;29;20943;-78
2022/01/27 00:36:09;;;;;;;37.67;22.53;;;;;;;;;;4921883;29;20189;-79
2022/01/27 00:38:36;;;;;;;43.03;23.77;;;;;;;;;;4938678;29;20566;-78
2022/01/27 00:41:02;;;;;;;47.47;24.90;;;;;;;;;;4936917;28;20604;-78
2022/01/27 00:43:29;;;;;;;45.20;24.17;;;;;;;;;;4959377;28;20302;-77
2022/01/27 00:45:56;;;;;;;42.20;23.60;;;;;;;;;;4957962;28;20189;-78
2022/01/27 00:48:22;;;;;;;41.17;23.60;;;;;;;;;;4956264;28;20192;-78
2022/01/27 00:50:54;;;;;;;42.17;23.63;;;;;;;;;;4953772;28;20554;-78
2022/01/27 00:57:03;;;;;;;40.80;23.10;;;;;;;;;;4937396;29;20181;-77
2022/01/27 01:01:24;;;;;;;36.17;20.80;;;;;;;;;;4934365;29;20185;-78
2022/01/27 01:03:53;;;;;;;35.47;21.17;;;;;;;;;;4951778;28;20703;-76
2022/01/27 01:06:32;;;;;;;38.80;22.33;;;;;;;;;;4951671;28;20179;-78
2022/01/27 01:22:01;;;;;;;38.23;21.73;;;;;;;;;;4944454;28;20987;-76
2022/01/27 01:32:46;;;;;;;40.43;21.93;;;;;;;;;;4949062;28;20192;-77
2022/01/27 01:35:12;;;;;;;38.20;20.67;;;;;;;;;;4949626;28;20190;-77
2022/01/27 01:37:41;;;;;;;42.40;22.67;;;;;;;;;;4949943;28;20189;-78
2022/01/27 01:40:08;;;;;;;36.87;20.67;;;;;;;;;;4950508;28;20209;-78
2022/01/27 01:42:35;;;;;;;35.20;20.23;;;;;;;;;;4951861;28;20193;-77
2022/01/27 01:45:05;;;;;;;36.37;21.33;;;;;;;;;;4953762;28;20276;-78
2022/01/27 01:47:36;;;;;;;35.30;19.67;;;;;;;;;;4953031;28;20900;-78
2022/01/27 01:50:03;;;;;;;35.20;20.47;;;;;;;;;;4954346;28;20232;-78
2022/01/27 01:52:29;;;;;;;32.93;18.47;;;;;;;;;;4939701;28;20221;-78
2022/01/27 01:54:55;;;;;;;35.70;20.03;;;;;;;;;;4940050;29;20189;-77
2022/01/27 01:57:22;;;;;;;34.63;19.20;;;;;;;;;;4954701;29;20216;-77
2022/01/27 01:59:48;;;;;;;31.17;18.80;;;;;;;;;;4955122;28;20185;-77
2022/01/27 02:02:14;;;;;;;31.53;18.03;;;;;;;;;;4956500;29;20712;-77
2022/01/27 02:04:41;;;;;;;29.07;17.50;;;;;;;;;;4955651;28;20209;-77
2022/01/27 02:07:16;;;;;;;31.87;18.97;;;;;;;;;;4955816;29;20683;-77
2022/01/27 02:18:00;;;;;;;31.47;17.77;;;;;;;;;;4957037;29;20185;-78
2022/01/27 02:20:27;;;;;;;29.53;17.43;;;;;;;;;;4953147;28;20204;-78
2022/01/27 02:22:53;;;;;;;31.97;18.93;;;;;;;;;;4955325;28;20240;-77
2022/01/27 02:25:19;;;;;;;31.37;17.40;;;;;;;;;;4957043;28;20686;-78
2022/01/27 02:27:46;;;;;;;29.87;18.47;;;;;;;;;;4953060;28;20217;-78
2022/01/27 02:30:13;;;;;;;29.50;16.77;;;;;;;;;;4938468;29;20279;-77
2022/01/27 02:32:39;;;;;;;32.30;17.73;;;;;;;;;;4955359;28;20185;-77
2022/01/27 02:35:06;;;;;;;33.83;18.70;;;;;;;;;;4955445;28;20217;-77
2022/01/27 02:37:32;;;;;;;29.37;17.07;;;;;;;;;;4938832;29;20268;-78
2022/01/27 02:39:58;;;;;;;28.90;17.07;;;;;;;;;;4938904;29;20185;-78
2022/01/27 02:42:27;;;;;;;30.10;17.93;;;;;;;;;;4956486;28;20177;-76
2022/01/27 02:44:53;;;;;;;28.57;16.50;;;;;;;;;;4956259;28;20223;-76
2022/01/27 02:47:20;;;;;;;30.53;16.50;;;;;;;;;;4951398;28;20268;-76
2022/01/27 02:49:47;;;;;;;32.23;18.20;;;;;;;;;;4957222;28;20209;-76
2022/01/27 02:52:13;;;;;;;27.40;16.77;;;;;;;;;;4939745;29;20264;-76
2022/01/27 02:54:39;;;;;;;31.30;17.13;;;;;;;;;;4956867;28;20201;-76
2022/01/27 02:57:05;;;;;;;28.20;17.47;;;;;;;;;;4955081;28;20819;-76
2022/01/27 02:59:32;;;;;;;31.13;16.97;;;;;;;;;;4949442;29;20222;-76
2022/01/27 03:01:58;;;;;;;34.30;19.40;;;;;;;;;;4969568;28;20210;-76
2022/01/27 03:04:25;;;;;;;28.03;16.33;;;;;;;;;;4941755;28;20304;-76
2022/01/27 03:06:51;;;;;;;29.93;17.37;;;;;;;;;;4957485;28;20605;-76
2022/01/27 03:09:18;;;;;;;31.93;16.97;;;;;;;;;;4953194;28;20224;-78
2022/01/27 03:11:47;;;;;;;27.30;16.07;;;;;;;;;;4956050;28;20224;-78
2022/01/27 03:14:15;;;;;;;25.93;15.63;;;;;;;;;;4956218;28;20212;-78
2022/01/27 03:16:42;;;;;;;32.57;16.77;;;;;;;;;;4955033;29;20181;-78
2022/01/27 03:19:08;;;;;;;28.60;17.10;;;;;;;;;;4941363;29;20213;-77
2022/01/27 03:21:35;;;;;;;27.83;17.03;;;;;;;;;;4956707;28;20189;-78
2022/01/27 03:24:01;;;;;;;31.37;17.63;;;;;;;;;;4956072;28;20206;-77
2022/01/27 03:26:28;;;;;;;31.40;16.80;;;;;;;;;;4941936;29;20216;-78
2022/01/27 03:28:54;;;;;;;31.73;16.83;;;;;;;;;;4939998;29;20192;-78
2022/01/27 03:31:21;;;;;;;29.63;16.90;;;;;;;;;;4948021;28;20185;-78
2022/01/27 03:33:47;;;;;;;31.00;17.77;;;;;;;;;;4954439;28;20197;-78
2022/01/27 03:36:14;;;;;;;30.70;17.50;;;;;;;;;;4953617;28;20185;-77
2022/01/27 03:38:40;;;;;;;28.87;16.30;;;;;;;;;;4956827;28;20204;-79
2022/01/27 03:41:08;;;;;;;29.17;17.43;;;;;;;;;;4957772;28;20634;-78
2022/01/27 03:43:35;;;;;;;30.50;17.60;;;;;;;;;;4953356;28;20209;-78
2022/01/27 03:46:02;;;;;;;28.77;16.90;;;;;;;;;;4939877;29;20232;-77
2022/01/27 03:48:28;;;;;;;28.27;16.97;;;;;;;;;;4953251;28;20197;-78
2022/01/27 03:50:55;;;;;;;29.43;16.80;;;;;;;;;;4955264;28;20207;-78
2022/01/27 03:53:21;;;;;;;30.90;17.23;;;;;;;;;;4941998;29;20228;-78
2022/01/27 03:55:47;;;;;;;30.73;17.60;;;;;;;;;;4942802;29;20197;-78
2022/01/27 03:58:14;;;;;;;29.03;17.53;;;;;;;;;;4942790;29;20616;-78
2022/01/27 04:00:40;;;;;;;30.53;18.03;;;;;;;;;;4958020;28;20177;-78
2022/01/27 04:03:09;;;;;;;30.37;17.90;;;;;;;;;;4954914;28;20228;-78
2022/01/27 04:05:39;;;;;;;29.23;17.87;;;;;;;;;;4959383;29;20177;-78
2022/01/27 04:08:07;;;;;;;28.07;16.70;;;;;;;;;;4937887;29;20205;-78
2022/01/27 04:10:33;;;;;;;28.80;17.97;;;;;;;;;;4958969;28;20213;-79
2022/01/27 04:13:00;;;;;;;32.40;18.20;;;;;;;;;;4979359;28;20255;-78
2022/01/27 04:15:27;;;;;;;30.77;18.63;;;;;;;;;;4963948;28;20224;-78
2022/01/27 04:17:54;;;;;;;30.53;17.80;;;;;;;;;;4960978;28;20206;-78
2022/01/27 04:20:20;;;;;;;30.00;17.53;;;;;;;;;;4961309;29;20212;-78
2022/01/27 04:22:47;;;;;;;28.67;16.70;;;;;;;;;;4928017;29;20177;-78
2022/01/27 04:25:14;;;;;;;32.87;18.37;;;;;;;;;;4937706;29;20188;-77
2022/01/27 04:27:44;;;;;;;31.37;18.53;;;;;;;;;;4937836;29;20655;-77
2022/01/27 04:30:15;;;;;;;30.40;17.90;;;;;;;;;;4939144;28;20296;-77
2022/01/27 04:32:47;;;;;;;26.20;16.13;;;;;;;;;;4958549;28;20196;-78
2022/01/27 04:35:18;;;;;;;30.70;16.43;;;;;;;;;;4953990;28;20189;-79
2022/01/27 04:37:57;;;;;;;31.60;18.53;;;;;;;;;;4958658;29;20177;-78
2022/01/27 04:41:32;;;;;;;28.43;17.67;;;;;;;;;;4937753;29;20228;-78
2022/01/27 04:46:40;;;;;;;29.77;17.30;;;;;;;;;;4941870;29;20614;-77
2022/01/27 04:48:41;;;;;;;28.40;16.70;;;;;;;;;;4956047;28;20208;-79
2022/01/27 04:51:11;;;;;;;30.67;17.60;;;;;;;;;;4956527;29;20212;-78
2022/01/27 04:53:51;;;;;;;28.53;17.23;;;;;;;;;;4939739;29;20205;-78
2022/01/27 04:56:19;;;;;;;31.40;17.57;;;;;;;;;;4959889;29;20661;-78
2022/01/27 04:58:48;;;;;;;30.70;16.50;;;;;;;;;;4951037;29;20182;-78
2022/01/27 05:01:16;;;;;;;29.83;17.20;;;;;;;;;;4953043;28;20988;-78
2022/01/27 05:03:51;;;;;;;27.43;16.20;;;;;;;;;;4956968;28;20213;-78
2022/01/27 05:06:17;;;;;;;26.73;16.37;;;;;;;;;;4937642;29;20184;-78
2022/01/27 05:08:43;;;;;;;28.77;17.30;;;;;;;;;;4955249;28;20629;-78
2022/01/27 05:11:17;;;;;;;29.37;16.87;;;;;;;;;;4957054;28;20205;-78
2022/01/27 05:14:06;;;;;;;26.80;15.97;;;;;;;;;;4952818;28;20203;-78
2022/01/27 05:16:33;;;;;;;31.53;17.40;;;;;;;;;;4953626;29;20241;-78
2022/01/27 05:18:59;;;;;;;30.57;17.30;;;;;;;;;;4954731;28;20213;-78
2022/01/27 05:21:25;;;;;;;29.37;16.87;;;;;;;;;;4958214;28;20190;-78
2022/01/27 05:23:51;;;;;;;30.23;17.00;;;;;;;;;;4962485;28;20239;-78
2022/01/27 05:26:17;;;;;;;29.83;16.27;;;;;;;;;;4955949;28;20236;-78
2022/01/27 05:28:44;;;;;;;28.13;15.07;;;;;;;;;;4957299;28;20264;-78
2022/01/27 05:31:10;;;;;;;32.73;16.67;;;;;;;;;;4940109;29;20268;-78
2022/01/27 05:33:36;;;;;;;28.23;15.63;;;;;;;;;;4968619;28;20201;-78
2022/01/27 05:36:03;;;;;;;31.17;17.13;;;;;;;;;;4956557;28;20264;-78
2022/01/27 05:38:29;;;;;;;28.70;15.83;;;;;;;;;;4958345;28;20185;-78
2022/01/27 05:40:55;;;;;;;26.80;15.63;;;;;;;;;;4959561;28;20189;-78
2022/01/27 05:43:21;;;;;;;27.03;15.50;;;;;;;;;;4960391;28;20208;-78
2022/01/27 05:45:47;;;;;;;24.57;14.53;;;;;;;;;;4958342;28;20947;-78
2022/01/27 05:48:14;;;;;;;30.73;15.40;;;;;;;;;;4959160;28;20188;-78
2022/01/27 05:50:40;;;;;;;27.30;15.27;;;;;;;;;;4961828;28;20220;-78
2022/01/27 05:53:06;;;;;;;29.43;16.40;;;;;;;;;;4930681;29;20205;-78
2022/01/27 05:55:33;;;;;;;27.67;15.50;;;;;;;;;;4945949;29;20181;-78
2022/01/27 05:57:59;;;;;;;26.77;15.30;;;;;;;;;;4960130;28;20189;-78
2022/01/27 06:00:27;;;;;;;26.83;15.63;;;;;;;;;;4928958;29;20240;-78
2022/01/27 06:02:53;;;;;;;31.53;16.53;;;;;;;;;;4923067;29;20210;-78
2022/01/27 06:05:20;;;;;;;30.37;16.40;;;;;;;;;;4945286;29;20186;-78
2022/01/27 06:07:46;;;;;;;30.33;15.53;;;;;;;;;;4940735;29;20205;-78
2022/01/27 06:10:13;;;;;;;29.47;16.97;;;;;;;;;;4932610;29;20207;-78
2022/01/27 06:12:46;;;;;;;32.37;17.43;;;;;;;;;;4963127;28;20178;-78
2022/01/27 06:15:12;;;;;;;30.77;17.37;;;;;;;;;;4958570;28;20177;-79
2022/01/27 06:17:38;;;;;;;31.60;17.03;;;;;;;;;;4942977;29;20181;-78
2022/01/27 06:20:05;;;;;;;31.30;17.33;;;;;;;;;;4964624;28;20207;-78
2022/01/27 06:22:31;;;;;;;28.10;15.77;;;;;;;;;;4957018;28;20177;-77
2022/01/27 06:24:57;;;;;;;29.40;16.97;;;;;;;;;;4958632;28;20735;-77
2022/01/27 06:27:25;;;;;;;29.53;16.33;;;;;;;;;;4942233;29;20216;-78
2022/01/27 06:29:52;;;;;;;32.97;17.00;;;;;;;;;;4940767;29;20268;-75
2022/01/27 06:32:18;;;;;;;26.80;15.73;;;;;;;;;;4967784;28;20184;-75
2022/01/27 06:34:44;;;;;;;29.60;15.93;;;;;;;;;;4957505;28;20298;-77
2022/01/27 06:37:10;;;;;;;29.80;15.83;;;;;;;;;;4941542;29;20181;-76
2022/01/27 06:39:36;;;;;;;30.47;15.73;;;;;;;;;;4954893;28;20188;-76
2022/01/27 06:42:05;;;;;;;29.47;16.47;;;;;;;;;;4950917;29;20213;-77
2022/01/27 06:44:31;;;;;;;29.50;16.43;;;;;;;;;;4956411;28;20259;-77
2022/01/27 06:46:57;;;;;;;28.57;15.87;;;;;;;;;;4959352;28;20222;-78
2022/01/27 06:49:23;;;;;;;27.87;15.70;;;;;;;;;;4940480;28;20231;-81
2022/01/27 06:51:50;;;;;;;31.80;15.73;;;;;;;;;;4929267;28;20188;-80
2022/01/27 06:54:17;;;;;;;29.73;16.90;;;;;;;;;;4966183;28;20269;-81
2022/01/27 06:56:44;;;;;;;28.00;16.37;;;;;;;;;;4939942;28;20635;-82
2022/01/27 06:59:10;;;;;;;29.10;16.47;;;;;;;;;;4925794;28;20177;-82
2022/01/27 07:01:36;;;;;;;27.63;15.17;;;;;;;;;;4955074;28;20590;-80
2022/01/27 07:04:03;;;;;;;29.57;16.10;;;;;;;;;;4959483;28;20201;-78
2022/01/27 07:06:29;;;;;;;29.33;16.20;;;;;;;;;;4951727;28;20377;-78
2022/01/27 07:08:55;;;;;;;30.20;16.57;;;;;;;;;;4954406;28;20774;-79
2022/01/27 07:11:21;;;;;;;29.83;15.60;;;;;;;;;;4954756;28;20205;-76
2022/01/27 07:13:47;;;;;;;29.43;16.23;;;;;;;;;;4953636;28;20201;-78
2022/01/27 07:16:13;;;;;;;30.40;16.10;;;;;;;;;;4958331;28;20653;-77
2022/01/27 07:18:40;;;;;;;36.07;15.87;;;;;;;;;;4954555;29;20709;-77
2022/01/27 07:21:06;;;;;;;30.73;15.83;;;;;;;;;;4946452;28;20186;-78
2022/01/27 07:23:32;;;;;;;28.83;15.43;;;;;;;;;;4959745;28;20578;-79
2022/01/27 07:25:58;;;;;;;26.70;15.33;;;;;;;;;;4954172;28;20232;-79
2022/01/27 07:28:24;;;;;;;29.77;15.57;;;;;;;;;;4954398;29;20217;-79
2022/01/27 07:30:51;;;;;;;29.77;16.77;;;;;;;;;;4955752;28;20212;-79
2022/01/27 07:33:17;;;;;;;31.83;15.77;;;;;;;;;;4953530;28;20211;-78
2022/01/27 07:35:43;;;;;;;31.03;15.80;;;;;;;;;;4953466;29;20224;-78
2022/01/27 07:38:09;;;;;;;30.87;15.97;;;;;;;;;;4955440;28;20185;-79
2022/01/27 07:40:36;;;;;;;30.13;15.87;;;;;;;;;;4966771;28;20284;-79
2022/01/27 07:43:02;;;;;;;29.47;14.93;;;;;;;;;;4954969;28;20247;-74
2022/01/27 07:45:28;;;;;;;28.07;14.30;;;;;;;;;;4957085;28;20248;-77
2022/01/27 07:47:55;;;;;;;29.37;15.27;;;;;;;;;;4953261;28;20204;-77
2022/01/27 07:50:22;;;;;;;28.37;14.73;;;;;;;;;;4935892;28;20217;-78
2022/01/27 07:52:48;;;;;;;29.20;15.53;;;;;;;;;;4950218;29;20181;-77
2022/01/27 07:55:14;;;;;;;31.57;15.83;;;;;;;;;;4953282;29;20232;-77
2022/01/27 07:57:40;;;;;;;29.00;15.10;;;;;;;;;;4937530;28;20189;-78
2022/01/27 08:00:09;;;;;;;29.63;15.13;;;;;;;;;;4953428;28;20185;-78
2022/01/27 08:02:38;;;;;;;28.27;15.13;;;;;;;;;;4957492;28;20571;-76
2022/01/27 08:05:05;;;;;;;27.63;14.93;;;;;;;;;;4936654;29;20196;-77
2022/01/27 08:07:31;;;;;;;32.30;15.83;;;;;;;;;;4953745;28;20704;-78
2022/01/27 08:09:57;;;;;;;31.27;15.87;;;;;;;;;;4949305;28;20213;-78
2022/01/27 08:12:23;;;;;;;30.90;14.90;;;;;;;;;;4944966;28;20185;-76
2022/01/27 08:14:50;;;;;;;32.97;15.77;;;;;;;;;;4951891;28;20205;-78
2022/01/27 08:17:17;;;;;;;28.47;14.90;;;;;;;;;;4946813;29;20185;-75
2022/01/27 08:19:44;;;;;;;34.97;15.33;;;;;;;;;;4950078;28;20192;-74
2022/01/27 08:22:13;;;;;;;30.57;15.43;;;;;;;;;;4951378;28;20276;-76
2022/01/27 08:24:41;;;;;;;29.60;14.50;;;;;;;;;;4953477;28;20862;-76
2022/01/27 08:27:09;;;;;;;35.03;15.83;;;;;;;;;;4952324;28;20193;-76
2022/01/27 08:29:41;;;;;;;32.10;15.20;;;;;;;;;;4950526;28;20216;-76
2022/01/27 08:32:15;;;;;;;31.87;15.10;;;;;;;;;;4951925;28;20684;-76
2022/01/27 08:34:47;;;;;;;30.60;15.07;;;;;;;;;;4951102;29;21026;-76
2022/01/27 08:37:19;;;;;;;30.00;14.90;;;;;;;;;;4952634;28;20697;-76
2022/01/27 08:39:49;;;;;;;32.10;15.40;;;;;;;;;;4936128;29;20209;-76
2022/01/27 08:42:20;;;;;;;35.33;15.40;;;;;;;;;;4950747;28;20220;-76
2022/01/27 08:44:52;;;;;;;32.93;15.47;;;;;;;;;;4951764;29;20252;-76
2022/01/27 08:47:23;;;;;;;34.93;16.40;;;;;;;;;;4950268;28;20539;-76
2022/01/27 08:49:49;;;;;;;33.87;15.57;;;;;;;;;;4946713;28;20302;-77
2022/01/27 08:52:18;;;;;;;35.37;15.80;;;;;;;;;;4954736;28;20539;-75
2022/01/27 08:54:46;;;;;;;34.10;15.27;;;;;;;;;;4952606;28;20200;-76
2022/01/27 08:57:12;;;;;;;34.97;15.37;;;;;;;;;;4950379;28;20181;-76
2022/01/27 08:59:42;;;;;;;34.03;16.63;;;;;;;;;;4952754;28;20189;-76
2022/01/27 09:02:14;;;;;;;41.97;17.47;;;;;;;;;;4957899;28;20196;-76
2022/01/27 09:04:41;;;;;;;40.57;17.40;;;;;;;;;;4972057;28;20205;-76
2022/01/27 09:07:07;;;;;;;36.43;15.97;;;;;;;;;;4956121;28;20369;-76
2022/01/27 09:09:34;;;;;;;37.20;16.80;;;;;;;;;;4956053;28;20845;-76
2022/01/27 09:12:00;;;;;;;41.17;17.50;;;;;;;;;;4959453;28;20267;-82
2022/01/27 09:14:31;;;;;;;41.50;16.80;;;;;;;;;;4951970;28;20251;-76
2022/01/27 09:16:58;;;;;;;38.07;16.87;;;;;;;;;;4959497;28;20216;-76
2022/01/27 09:19:26;;;;;;;41.03;16.83;;;;;;;;;;4960946;28;20181;-75
2022/01/27 09:21:56;;;;;;;39.63;16.80;;;;;;;;;;4957423;28;20189;-76
2022/01/27 09:24:37;;;;;;;38.03;17.80;;;;;;;;;;4959427;28;20696;-76
2022/01/27 09:27:04;;;;;;;40.00;17.53;;;;;;;;;;4939635;28;20189;-76
2022/01/27 09:29:33;;;;;;;37.40;17.03;;;;;;;;;;4956316;28;20213;-76
2022/01/27 09:32:02;;;;;;;39.37;15.50;;;;;;;;;;4945810;28;20603;-76
2022/01/27 09:34:29;;;;;;;41.97;16.43;;;;;;;;;;4961154;28;20205;-76
2022/01/27 09:36:57;;;;;;;40.07;16.60;;;;;;;;;;4961504;28;20607;-76
2022/01/27 09:39:24;;;;;;;36.03;15.70;;;;;;;;;;4941818;28;20269;-75
2022/01/27 09:41:55;;;;;;;36.30;16.97;;;;;;;;;;4960391;28;20181;-75
2022/01/27 09:44:29;;;;;;;37.60;16.80;;;;;;;;;;4960077;28;20196;-76
2022/01/27 09:47:01;;;;;;;36.93;16.50;;;;;;;;;;4959474;28;20196;-75
2022/01/27 09:49:43;;;;;;;34.30;16.47;;;;;;;;;;4959813;28;20308;-76
2022/01/27 09:52:13;;;;;;;34.00;15.63;;;;;;;;;;4932177;28;20198;-75
2022/01/27 09:54:39;;;;;;;29.80;13.97;;;;;;;;;;4964970;28;20232;-76
2022/01/27 09:57:11;;;;;;;34.80;16.17;;;;;;;;;;4952308;28;20211;-76
2022/01/27 09:59:39;;;;;;;28.50;13.87;;;;;;;;;;4966798;28;20295;-76
2022/01/27 10:02:09;;;;;;;30.77;14.40;;;;;;;;;;4960428;28;20193;-75
2022/01/27 10:04:46;;;;;;;29.63;13.73;;;;;;;;;;4952967;28;20321;-76
2022/01/27 10:07:15;;;;;;;27.20;13.23;;;;;;;;;;4957466;28;20192;-76
2022/01/27 10:09:57;;;;;;;28.50;14.20;;;;;;;;;;4956278;28;20715;-76
2022/01/27 10:12:49;;;;;;;33.03;14.57;;;;;;;;;;4954564;28;20193;-76
2022/01/27 10:15:23;;;;;;;28.97;13.47;;;;;;;;;;4935647;28;20193;-75
2022/01/27 10:18:11;;;;;;;28.63;13.37;;;;;;;;;;4960365;28;20272;-75
2022/01/27 10:20:43;;;;;;;28.57;12.67;;;;;;;;;;4956306;28;20216;-76
2022/01/27 10:23:10;;;;;;;26.07;13.30;;;;;;;;;;4954897;28;20235;-76
2022/01/27 10:25:46;;;;;;;25.67;12.97;;;;;;;;;;4958113;28;20200;-76
2022/01/27 10:28:25;;;;;;;22.90;12.00;;;;;;;;;;4956680;28;20206;-76
2022/01/27 10:31:12;;;;;;;23.67;12.57;;;;;;;;;;4937600;28;20265;-76
2022/01/27 10:33:43;;;;;;;27.47;12.33;;;;;;;;;;4960427;28;20697;-76
2022/01/27 10:36:27;;;;;;;24.70;12.03;;;;;;;;;;4933514;28;20193;-76
2022/01/27 10:38:57;;;;;;;26.37;12.73;;;;;;;;;;4952701;28;20177;-76
2022/01/27 10:41:27;;;;;;;25.70;11.43;;;;;;;;;;4953972;28;20181;-76
2022/01/27 10:44:11;;;;;;;23.20;10.50;;;;;;;;;;4954488;28;20189;-76
2022/01/27 10:47:04;;;;;;;22.23;11.53;;;;;;;;;;4959148;28;20181;-76
2022/01/27 10:49:33;;;;;;;25.37;12.77;;;;;;;;;;4954540;28;20207;-76
2022/01/27 10:52:22;;;;;;;23.40;11.33;;;;;;;;;;4956454;28;20176;-76
2022/01/27 10:54:59;;;;;;;23.67;11.80;;;;;;;;;;4959207;28;20665;-76
2022/01/27 10:57:27;;;;;;;20.30;10.60;;;;;;;;;;4933571;28;20267;-75
2022/01/27 11:00:14;;;;;;;20.80;11.20;;;;;;;;;;4959829;28;20287;-75
2022/01/27 11:02:49;;;;;;;21.70;10.97;;;;;;;;;;4952595;28;20236;-75
2022/01/27 11:05:38;;;;;;;23.43;11.07;;;;;;;;;;4952271;28;20188;-75
2022/01/27 11:08:06;;;;;;;21.90;11.27;;;;;;;;;;4957306;28;20207;-75
2022/01/27 11:10:32;;;;;;;24.13;12.13;;;;;;;;;;4953597;28;20201;-75
2022/01/27 11:13:01;;;;;;;22.63;10.63;;;;;;;;;;4952170;28;20246;-75
2022/01/27 11:15:28;;;;;;;21.83;10.73;;;;;;;;;;4950129;28;20182;-75
2022/01/27 11:17:56;;;;;;;23.43;11.60;;;;;;;;;;4960323;28;20181;-75
2022/01/27 11:20:48;;;;;;;22.60;11.70;;;;;;;;;;4954264;28;20247;-75
2022/01/27 11:26:21;;;;;;;22.87;10.90;;;;;;;;;;4947823;28;20231;-75
2022/01/27 11:28:48;;;;;;;24.97;13.27;;;;;;;;;;4951814;28;20188;-75
2022/01/27 11:31:24;;;;;;;22.33;11.43;;;;;;;;;;4960966;28;20219;-75
2022/01/27 11:33:59;;;;;;;22.43;11.30;;;;;;;;;;4954517;28;20212;-75
2022/01/27 11:36:29;;;;;;;21.93;10.70;;;;;;;;;;4954344;28;20192;-75
2022/01/27 11:39:01;;;;;;;19.63;10.53;;;;;;;;;;4954045;28;20204;-75
2022/01/27 11:41:37;;;;;;;25.50;12.40;;;;;;;;;;4954000;28;20184;-75
2022/01/27 11:44:32;;;;;;;25.10;12.13;;;;;;;;;;4957709;28;20288;-75
2022/01/27 11:47:12;;;;;;;22.83;11.30;;;;;;;;;;4954225;28;20669;-75
2022/01/27 11:49:53;;;;;;;24.50;12.20;;;;;;;;;;4955906;28;20329;-75
2022/01/27 11:52:22;;;;;;;27.63;14.40;;;;;;;;;;4954613;28;20189;-75
2022/01/27 11:54:51;;;;;;;24.93;13.47;;;;;;;;;;4950902;28;20201;-75
2022/01/27 11:57:48;;;;;;;28.23;14.33;;;;;;;;;;4952749;28;20173;-75
2022/01/27 12:00:17;;;;;;;29.20;14.80;;;;;;;;;;4957202;28;20195;-75
2022/01/27 12:03:12;;;;;;;30.40;14.97;;;;;;;;;;4950592;28;20622;-75
2022/01/27 12:05:42;;;;;;;34.07;16.77;;;;;;;;;;4955778;28;20212;-75
2022/01/27 12:08:15;;;;;;;31.13;15.77;;;;;;;;;;4952008;28;20264;-74
2022/01/27 12:10:48;;;;;;;35.13;16.70;;;;;;;;;;4956367;28;20224;-75
2022/01/27 12:19:04;;;;;;;34.63;17.43;;;;;;;;;;4952895;28;20279;-74
2022/01/27 12:21:37;;;;;;;33.97;16.70;;;;;;;;;;4957179;28;20185;-74
2022/01/27 12:24:22;;;;;;;38.93;18.50;;;;;;;;;;4951980;28;20223;-74
2022/01/27 12:27:04;;;;;;;37.77;19.07;;;;;;;;;;4955506;28;20189;-74
2022/01/27 12:29:32;;;;;;;36.43;17.80;;;;;;;;;;4958915;28;20234;-77
2022/01/27 12:32:08;;;;;;;36.80;18.67;;;;;;;;;;4960512;28;20180;-74
2022/01/27 12:34:37;;;;;;;36.70;18.57;;;;;;;;;;4959091;28;20303;-76
2022/01/27 12:37:18;;;;;;;40.77;19.60;;;;;;;;;;4958614;28;20185;-75
2022/01/27 12:39:50;;;;;;;36.43;17.77;;;;;;;;;;4963246;28;20195;-75
2022/01/27 12:42:18;;;;;;;37.27;19.10;;;;;;;;;;4958978;28;20189;-75
2022/01/27 12:44:59;;;;;;;38.47;18.87;;;;;;;;;;4954698;28;20216;-75
2022/01/27 12:47:27;;;;;;;38.23;18.37;;;;;;;;;;4956812;28;20320;-75
2022/01/27 12:50:06;;;;;;;41.13;18.40;;;;;;;;;;4963385;28;20205;-75
2022/01/27 12:52:40;;;;;;;38.03;18.03;;;;;;;;;;4951246;28;20185;-75
2022/01/27 12:55:16;;;;;;;36.90;18.60;;;;;;;;;;4952498;28;20173;-75
2022/01/27 12:57:55;;;;;;;40.37;18.73;;;;;;;;;;4950784;28;20208;-75
2022/01/27 13:00:39;;;;;;;40.20;20.33;;;;;;;;;;4951277;28;20201;-75
2022/01/27 13:03:06;;;;;;;39.37;20.13;;;;;;;;;;4949173;28;20231;-75
2022/01/27 13:05:40;;;;;;;36.30;19.03;;;;;;;;;;4952801;29;20212;-75
2022/01/27 13:08:10;;;;;;;39.50;19.37;;;;;;;;;;4950771;28;20193;-75
2022/01/27 13:10:37;;;;;;;39.97;19.37;;;;;;;;;;4950930;28;20297;-75
2022/01/27 13:13:13;;;;;;;44.07;21.10;;;;;;;;;;4951332;28;20205;-75
2022/01/27 13:15:40;;;;;;;40.77;19.63;;;;;;;;;;4949574;29;20185;-76
2022/01/27 13:18:15;;;;;;;40.00;19.80;;;;;;;;;;4952914;28;20177;-75
2022/01/27 13:20:45;;;;;;;40.23;20.53;;;;;;;;;;4952522;28;20657;-74
2022/01/27 13:23:45;;;;;;;41.77;19.37;;;;;;;;;;4951046;28;20310;-75
2022/01/27 13:26:05;;;;;;;37.50;19.83;;;;;;;;;;4950891;28;20197;-75
2022/01/27 13:28:36;;;;;;;41.57;20.13;;;;;;;;;;4952473;28;20208;-75
2022/01/27 13:31:06;;;;;;;43.10;21.40;;;;;;;;;;4952349;28;20240;-75
2022/01/27 13:33:39;;;;;;;40.43;19.77;;;;;;;;;;4950499;28;20348;-75
2022/01/27 13:36:08;;;;;;;41.60;20.10;;;;;;;;;;4951091;28;20235;-79
2022/01/27 13:38:50;;;;;;;41.20;20.47;;;;;;;;;;4951622;28;20181;-79
2022/01/27 13:41:18;;;;;;;37.67;19.77;;;;;;;;;;4926258;29;20208;-75
2022/01/27 13:43:51;;;;;;;39.03;19.40;;;;;;;;;;4942812;28;20216;-76
2022/01/27 13:46:36;;;;;;;40.77;19.17;;;;;;;;;;4942436;29;20652;-76
2022/01/27 13:49:13;;;;;;;37.37;19.73;;;;;;;;;;4949120;28;20231;-76
2022/01/27 13:51:50;;;;;;;38.90;19.40;;;;;;;;;;4956045;28;20656;-76
2022/01/27 13:54:17;;;;;;;41.37;19.60;;;;;;;;;;4954316;28;20220;-76
2022/01/27 13:56:47;;;;;;;36.03;18.50;;;;;;;;;;4954329;29;20568;-75
2022/01/27 13:59:20;;;;;;;42.50;20.67;;;;;;;;;;4954245;29;20264;-75
2022/01/27 14:01:46;;;;;;;40.20;19.90;;;;;;;;;;4950189;28;20181;-76
2022/01/27 14:04:13;;;;;;;35.83;18.73;;;;;;;;;;4953029;28;20209;-78
2022/01/27 14:06:53;;;;;;;42.13;20.00;;;;;;;;;;4954757;28;20347;-79
2022/01/27 14:09:21;;;;;;;37.47;18.87;;;;;;;;;;4957314;28;20173;-80
2022/01/27 14:11:55;;;;;;;38.37;19.87;;;;;;;;;;4956313;28;20235;-79
2022/01/27 14:14:23;;;;;;;38.43;19.60;;;;;;;;;;4957197;28;20726;-80
2022/01/27 14:16:50;;;;;;;36.57;18.57;;;;;;;;;;4961139;28;20614;-80
2022/01/27 14:19:17;;;;;;;38.97;19.23;;;;;;;;;;4944933;28;20595;-80
2022/01/27 14:21:47;;;;;;;35.00;19.10;;;;;;;;;;4943981;28;20260;-80
2022/01/27 14:24:20;;;;;;;40.33;20.10;;;;;;;;;;4958319;28;20213;-80
2022/01/27 14:27:00;;;;;;;36.90;19.70;;;;;;;;;;4952664;28;20280;-80
2022/01/27 14:29:27;;;;;;;37.23;20.60;;;;;;;;;;4960652;28;20193;-80
2022/01/27 14:31:53;;;;;;;38.77;20.27;;;;;;;;;;4960574;28;20255;-80
2022/01/27 14:34:29;;;;;;;37.93;20.27;;;;;;;;;;4961374;28;20216;-80
2022/01/27 14:36:55;;;;;;;38.70;20.07;;;;;;;;;;4947963;28;20714;-80
2022/01/27 14:39:21;;;;;;;41.07;19.90;;;;;;;;;;4962286;28;20223;-79
2022/01/27 14:41:48;;;;;;;39.20;20.90;;;;;;;;;;4967703;28;20208;-80
2022/01/27 14:44:14;;;;;;;38.97;19.67;;;;;;;;;;4962177;28;20200;-80
2022/01/27 14:46:44;;;;;;;37.77;20.57;;;;;;;;;;4961906;28;20251;-79
2022/01/27 14:49:12;;;;;;;36.00;19.63;;;;;;;;;;4958995;28;20177;-79
2022/01/27 14:51:39;;;;;;;36.70;20.00;;;;;;;;;;4964670;28;20219;-79
2022/01/27 14:54:06;;;;;;;37.57;19.57;;;;;;;;;;4957570;28;20235;-79
2022/01/27 14:56:33;;;;;;;40.43;20.27;;;;;;;;;;4962025;28;20618;-80
2022/01/27 14:58:59;;;;;;;37.00;19.67;;;;;;;;;;4968348;28;20188;-80
2022/01/27 15:01:26;;;;;;;39.03;19.17;;;;;;;;;;4971213;28;20251;-79
2022/01/27 15:03:52;;;;;;;38.07;19.90;;;;;;;;;;4966481;28;20221;-80
2022/01/27 15:06:19;;;;;;;36.97;20.03;;;;;;;;;;4964230;28;20260;-80
2022/01/27 15:08:45;;;;;;;36.77;19.60;;;;;;;;;;4958924;28;20212;-80
2022/01/27 15:11:11;;;;;;;37.33;19.70;;;;;;;;;;4961794;28;20204;-80
2022/01/27 15:13:44;;;;;;;45.50;23.80;;;;;;;;;;4967102;28;20204;-80
2022/01/27 15:19:42;;;;;;;39.33;20.87;;;;;;;;;;4957105;28;20799;-79
2022/01/27 15:21:42;;;;;;;37.17;19.63;;;;;;;;;;4959977;28;20192;-79